Time;durP1;ratioP1;P1;durP2;ratioP2;P2;SDS_P1;SDS_P2;PMS_P1;PMS_P2;Temp;Humidity;BMP_temperature;BMP_pressure;BME280_temperature;BME280_humidity;BME280_pressure;Samples;Min_cycle;Max_cycle;Signal;HPM_P1;HPM_P2
2023/07/22 00:01:41;;;;;;;19.07;8.50;;;;;;;;;;5076189;28;20434;-67
2023/07/22 00:04:06;;;;;;;20.07;9.03;;;;;;;;;;5071679;28;20481;-67
2023/07/22 00:06:32;;;;;;;21.10;8.00;;;;;;;;;;5072418;28;20077;-67
2023/07/22 00:08:57;;;;;;;20.23;10.27;;;;;;;;;;5072768;28;20100;-67
2023/07/22 00:11:22;;;;;;;28.83;10.93;;;;;;;;;;5073059;28;20424;-67
2023/07/22 00:13:48;;;;;;;23.97;10.33;;;;;;;;;;5077719;28;20028;-67
2023/07/22 00:16:13;;;;;;;23.07;10.53;;;;;;;;;;5073699;28;20027;-68
2023/07/22 00:18:38;;;;;;;24.13;10.53;;;;;;;;;;5071662;28;20096;-68
2023/07/22 00:21:04;;;;;;;26.23;10.20;;;;;;;;;;5072828;28;20056;-68
2023/07/22 00:23:30;;;;;;;24.27;10.60;;;;;;;;;;5073614;28;20025;-68
2023/07/22 00:25:55;;;;;;;25.60;10.57;;;;;;;;;;5067272;28;20459;-68
2023/07/22 00:28:20;;;;;;;21.20;10.50;;;;;;;;;;5061899;28;20025;-68
2023/07/22 00:30:45;;;;;;;23.03;11.63;;;;;;;;;;5064732;28;20029;-67
2023/07/22 00:33:10;;;;;;;21.83;11.37;;;;;;;;;;5060429;28;20420;-68
2023/07/22 00:35:36;;;;;;;26.03;11.43;;;;;;;;;;5064907;28;20396;-68
2023/07/22 00:38:02;;;;;;;20.13;10.50;;;;;;;;;;5060836;28;20021;-68
2023/07/22 00:40:27;;;;;;;26.30;10.90;;;;;;;;;;5054421;28;20017;-68
2023/07/22 00:42:52;;;;;;;25.40;10.57;;;;;;;;;;5054545;28;20377;-68
2023/07/22 00:45:18;;;;;;;27.73;11.13;;;;;;;;;;5054720;28;20393;-68
2023/07/22 00:47:44;;;;;;;24.37;10.50;;;;;;;;;;5058367;28;20477;-68
2023/07/22 00:50:09;;;;;;;22.43;10.27;;;;;;;;;;5066523;28;20052;-68
2023/07/22 00:52:34;;;;;;;23.30;9.97;;;;;;;;;;5065571;28;20467;-68
2023/07/22 00:55:00;;;;;;;25.23;10.50;;;;;;;;;;5053102;28;20047;-68
2023/07/22 00:57:25;;;;;;;22.07;10.40;;;;;;;;;;5053396;28;20048;-68
2023/07/22 00:59:51;;;;;;;26.43;10.83;;;;;;;;;;5055649;28;20040;-68
2023/07/22 01:02:16;;;;;;;21.63;10.33;;;;;;;;;;5050403;28;20568;-68
2023/07/22 01:04:42;;;;;;;31.93;11.10;;;;;;;;;;5050439;28;20187;-68
2023/07/22 01:07:08;;;;;;;24.77;10.10;;;;;;;;;;5058813;28;20107;-68
2023/07/22 01:09:36;;;;;;;22.97;10.07;;;;;;;;;;5059647;28;20102;-68
2023/07/22 01:12:02;;;;;;;25.47;10.17;;;;;;;;;;5053956;28;20052;-68
2023/07/22 01:14:27;;;;;;;32.13;11.93;;;;;;;;;;5053785;28;20505;-68
2023/07/22 01:16:52;;;;;;;24.47;10.33;;;;;;;;;;5067388;28;20577;-68
2023/07/22 01:19:18;;;;;;;21.87;10.30;;;;;;;;;;5064010;28;20443;-68
2023/07/22 01:21:44;;;;;;;24.07;11.23;;;;;;;;;;5057277;28;20465;-68
2023/07/22 01:24:09;;;;;;;27.77;11.57;;;;;;;;;;5061668;28;20069;-68
2023/07/22 01:26:34;;;;;;;25.00;10.67;;;;;;;;;;5052653;28;20103;-68
2023/07/22 01:29:03;;;;;;;24.37;11.80;;;;;;;;;;5051429;28;20107;-68
2023/07/22 01:31:29;;;;;;;23.07;10.10;;;;;;;;;;5050680;28;20028;-68
2023/07/22 01:33:54;;;;;;;25.13;10.60;;;;;;;;;;5053260;28;20052;-68
2023/07/22 01:36:19;;;;;;;24.63;10.17;;;;;;;;;;5049898;28;20028;-68
2023/07/22 01:38:44;;;;;;;23.07;9.53;;;;;;;;;;5053225;28;20029;-68
2023/07/22 01:41:09;;;;;;;26.23;10.17;;;;;;;;;;5051323;28;20051;-68
2023/07/22 01:43:35;;;;;;;28.00;10.17;;;;;;;;;;5050324;28;20032;-68
2023/07/22 01:46:01;;;;;;;22.93;9.60;;;;;;;;;;5050101;28;20033;-68
2023/07/22 01:48:26;;;;;;;24.50;9.57;;;;;;;;;;5048301;28;20487;-68
2023/07/22 01:50:52;;;;;;;26.87;10.13;;;;;;;;;;5047521;28;20143;-67
2023/07/22 01:53:17;;;;;;;22.50;9.60;;;;;;;;;;5051684;28;20064;-68
2023/07/22 01:55:44;;;;;;;22.60;9.87;;;;;;;;;;5051655;28;20036;-68
2023/07/22 01:58:09;;;;;;;23.90;9.70;;;;;;;;;;5049490;28;20027;-67
2023/07/22 02:00:34;;;;;;;24.57;9.77;;;;;;;;;;5052761;28;20025;-67
2023/07/22 02:03:00;;;;;;;24.43;9.83;;;;;;;;;;5050598;28;20025;-67
2023/07/22 02:05:27;;;;;;;24.73;9.20;;;;;;;;;;5051664;28;20021;-67
2023/07/22 02:07:52;;;;;;;22.63;9.17;;;;;;;;;;5048814;28;20024;-67
2023/07/22 02:10:17;;;;;;;26.37;9.27;;;;;;;;;;5052575;28;20037;-67
2023/07/22 02:12:42;;;;;;;24.83;9.20;;;;;;;;;;5050499;28;20094;-67
2023/07/22 02:15:08;;;;;;;25.20;9.40;;;;;;;;;;5052074;28;20028;-67
2023/07/22 02:17:33;;;;;;;28.20;9.57;;;;;;;;;;5050399;28;20040;-67
2023/07/22 02:19:59;;;;;;;27.03;9.60;;;;;;;;;;5055726;28;20480;-67
2023/07/22 02:22:24;;;;;;;21.57;10.13;;;;;;;;;;5056246;28;20358;-68
2023/07/22 02:24:49;;;;;;;22.57;9.00;;;;;;;;;;5052688;28;20414;-68
2023/07/22 02:27:14;;;;;;;22.90;9.20;;;;;;;;;;5056185;28;20098;-68
2023/07/22 02:29:40;;;;;;;28.03;9.03;;;;;;;;;;5050122;28;20020;-68
2023/07/22 02:32:05;;;;;;;24.50;9.17;;;;;;;;;;5051300;28;20476;-67
2023/07/22 02:34:30;;;;;;;22.23;9.53;;;;;;;;;;5050506;28;20414;-67
2023/07/22 02:36:56;;;;;;;30.33;9.17;;;;;;;;;;5060718;28;20032;-67
2023/07/22 02:39:21;;;;;;;20.70;8.63;;;;;;;;;;5055046;28;20354;-67
2023/07/22 02:41:47;;;;;;;25.33;9.03;;;;;;;;;;5051943;28;20021;-67
2023/07/22 02:44:12;;;;;;;24.20;9.43;;;;;;;;;;5051493;28;20029;-67
2023/07/22 02:46:37;;;;;;;25.97;9.27;;;;;;;;;;5052257;28;20027;-67
2023/07/22 02:49:03;;;;;;;29.13;9.80;;;;;;;;;;5055566;28;20024;-67
2023/07/22 02:51:28;;;;;;;29.50;9.90;;;;;;;;;;5053168;28;20036;-67
2023/07/22 02:53:53;;;;;;;25.57;8.87;;;;;;;;;;5057475;28;20377;-68
2023/07/22 02:56:18;;;;;;;29.73;9.17;;;;;;;;;;5067287;28;20455;-67
2023/07/22 02:58:43;;;;;;;24.80;8.93;;;;;;;;;;5046686;28;20484;-68
2023/07/22 03:01:10;;;;;;;24.17;9.37;;;;;;;;;;5056183;28;20477;-67
2023/07/22 03:03:35;;;;;;;26.37;9.57;;;;;;;;;;5054836;28;20023;-67
2023/07/22 03:06:01;;;;;;;25.90;9.63;;;;;;;;;;5056077;28;20064;-68
2023/07/22 03:08:26;;;;;;;25.70;8.60;;;;;;;;;;5070046;28;20032;-67
2023/07/22 03:10:52;;;;;;;26.00;9.43;;;;;;;;;;5073592;28;20031;-67
2023/07/22 03:13:17;;;;;;;28.10;9.77;;;;;;;;;;5073585;28;20029;-67
2023/07/22 03:15:43;;;;;;;28.63;8.33;;;;;;;;;;5066509;28;20040;-68
2023/07/22 03:18:09;;;;;;;23.63;9.10;;;;;;;;;;5056693;28;20013;-67
2023/07/22 03:20:36;;;;;;;25.00;9.00;;;;;;;;;;5057125;28;20021;-67
2023/07/22 03:23:01;;;;;;;28.63;9.40;;;;;;;;;;5064268;28;20021;-67
2023/07/22 03:25:26;;;;;;;25.47;9.20;;;;;;;;;;5061934;28;20392;-68
2023/07/22 03:27:52;;;;;;;35.50;9.83;;;;;;;;;;5073014;28;20457;-68
2023/07/22 03:30:18;;;;;;;28.13;9.53;;;;;;;;;;5060527;28;20025;-67
2023/07/22 03:32:44;;;;;;;25.83;9.07;;;;;;;;;;5048524;28;20140;-67
2023/07/22 03:35:10;;;;;;;31.13;10.33;;;;;;;;;;5051532;28;20021;-67
2023/07/22 03:37:36;;;;;;;26.30;9.57;;;;;;;;;;5054532;28;20087;-67
2023/07/22 03:40:02;;;;;;;31.37;9.60;;;;;;;;;;5063649;28;20032;-67
2023/07/22 03:42:28;;;;;;;29.83;9.93;;;;;;;;;;5062100;28;20025;-67
2023/07/22 03:44:53;;;;;;;27.97;9.43;;;;;;;;;;5061192;28;20027;-68
2023/07/22 03:47:19;;;;;;;26.30;8.80;;;;;;;;;;5059524;28;20092;-67
2023/07/22 03:49:44;;;;;;;32.60;9.40;;;;;;;;;;5049746;28;20017;-67
2023/07/22 03:52:12;;;;;;;24.10;9.67;;;;;;;;;;5055454;28;20070;-67
2023/07/22 03:54:37;;;;;;;24.47;8.97;;;;;;;;;;5069604;28;20028;-67
2023/07/22 03:57:02;;;;;;;28.23;9.40;;;;;;;;;;5051278;28;20426;-67
2023/07/22 03:59:28;;;;;;;26.80;9.20;;;;;;;;;;5054781;28;20424;-67
2023/07/22 04:01:53;;;;;;;27.57;10.20;;;;;;;;;;5055289;28;20021;-68
2023/07/22 04:04:18;;;;;;;30.73;9.47;;;;;;;;;;5056412;28;20020;-68
2023/07/22 04:06:44;;;;;;;28.33;9.80;;;;;;;;;;5061267;28;20032;-67
2023/07/22 04:09:09;;;;;;;23.37;9.17;;;;;;;;;;5071927;28;20029;-68
2023/07/22 04:11:34;;;;;;;23.13;8.80;;;;;;;;;;5054528;28;20108;-67
2023/07/22 04:13:59;;;;;;;24.73;8.53;;;;;;;;;;5053166;28;20060;-67
2023/07/22 04:16:25;;;;;;;18.80;7.60;;;;;;;;;;5055753;28;20097;-67
2023/07/22 04:18:50;;;;;;;15.50;7.23;;;;;;;;;;5054696;28;20079;-67
2023/07/22 04:21:15;;;;;;;16.67;7.20;;;;;;;;;;5052879;28;20029;-66
2023/07/22 04:23:40;;;;;;;16.37;6.23;;;;;;;;;;5059216;28;20029;-66
2023/07/22 04:26:07;;;;;;;17.33;6.50;;;;;;;;;;5060279;28;20080;-66
2023/07/22 04:28:32;;;;;;;18.43;6.77;;;;;;;;;;5063070;28;20419;-65
2023/07/22 04:30:58;;;;;;;15.70;7.37;;;;;;;;;;5050941;28;20047;-66
2023/07/22 04:33:24;;;;;;;18.03;6.47;;;;;;;;;;5058028;28;20055;-65
2023/07/22 04:35:50;;;;;;;15.53;6.63;;;;;;;;;;5054301;28;20025;-65
2023/07/22 04:38:16;;;;;;;16.87;6.80;;;;;;;;;;5063590;28;20496;-65
2023/07/22 04:40:44;;;;;;;17.53;6.80;;;;;;;;;;5058111;28;20103;-65
2023/07/22 04:43:09;;;;;;;19.23;7.70;;;;;;;;;;5052736;28;20032;-65
2023/07/22 04:45:34;;;;;;;13.53;6.40;;;;;;;;;;5056002;28;20476;-64
2023/07/22 04:48:01;;;;;;;18.55;7.68;;;;;;;;;;5053440;28;20354;-65
2023/07/22 04:50:26;;;;;;;14.20;6.30;;;;;;;;;;5051188;28;20522;-64
2023/07/22 04:52:51;;;;;;;16.08;7.00;;;;;;;;;;5057357;28;20111;-65
2023/07/22 04:55:17;;;;;;;18.20;7.13;;;;;;;;;;5055228;28;20492;-65
2023/07/22 04:57:42;;;;;;;17.52;7.18;;;;;;;;;;5053298;28;20032;-65
2023/07/22 05:00:14;;;;;;;17.17;6.90;;;;;;;;;;5054658;28;20029;-65
2023/07/22 05:02:39;;;;;;;17.77;7.35;;;;;;;;;;5054228;28;20377;-65
2023/07/22 05:05:05;;;;;;;14.73;6.60;;;;;;;;;;5054916;28;20026;-65
2023/07/22 05:07:30;;;;;;;13.88;6.53;;;;;;;;;;5054320;28;20032;-65
2023/07/22 05:09:55;;;;;;;15.40;6.70;;;;;;;;;;5055262;28;20362;-65
2023/07/22 05:12:20;;;;;;;13.98;6.80;;;;;;;;;;5053785;28;20020;-61
2023/07/22 05:14:45;;;;;;;15.35;7.68;;;;;;;;;;5063314;28;20461;-62
2023/07/22 05:17:11;;;;;;;14.60;6.28;;;;;;;;;;5057173;28;20044;-61
2023/07/22 05:19:36;;;;;;;16.48;7.10;;;;;;;;;;5055987;28;20029;-62
2023/07/22 05:22:01;;;;;;;15.98;6.68;;;;;;;;;;5060159;28;20146;-62
2023/07/22 05:24:26;;;;;;;15.02;6.13;;;;;;;;;;5058992;28;20090;-63
2023/07/22 05:26:52;;;;;;;14.50;6.80;;;;;;;;;;5051939;28;20130;-63
2023/07/22 05:29:17;;;;;;;13.90;6.20;;;;;;;;;;5051864;28;20020;-63
2023/07/22 05:31:42;;;;;;;16.38;6.60;;;;;;;;;;5053309;28;20035;-63
2023/07/22 05:34:07;;;;;;;13.50;6.50;;;;;;;;;;5055103;28;20025;-63
2023/07/22 05:36:33;;;;;;;15.95;6.65;;;;;;;;;;5050624;28;20033;-63
2023/07/22 05:38:58;;;;;;;14.40;6.93;;;;;;;;;;5054337;28;20029;-63
2023/07/22 05:41:23;;;;;;;17.60;7.20;;;;;;;;;;5053867;28;20033;-63
2023/07/22 05:43:48;;;;;;;18.70;7.18;;;;;;;;;;5053899;28;20021;-63
2023/07/22 05:46:14;;;;;;;12.20;6.50;;;;;;;;;;5052879;28;20032;-62
2023/07/22 05:48:39;;;;;;;15.30;7.00;;;;;;;;;;5053196;28;20036;-63
2023/07/22 05:51:04;;;;;;;13.75;6.40;;;;;;;;;;5052745;28;20029;-62
2023/07/22 05:53:30;;;;;;;14.27;6.93;;;;;;;;;;5053864;28;20032;-63
2023/07/22 05:55:55;;;;;;;15.75;7.63;;;;;;;;;;5049826;28;20032;-63
2023/07/22 05:58:20;;;;;;;15.55;7.32;;;;;;;;;;5051655;28;20443;-62
2023/07/22 06:00:49;;;;;;;15.82;7.00;;;;;;;;;;5049653;28;20442;-63
2023/07/22 06:03:14;;;;;;;18.98;7.30;;;;;;;;;;5050314;28;20373;-63
2023/07/22 06:05:39;;;;;;;18.58;7.07;;;;;;;;;;5057149;28;20025;-63
2023/07/22 06:08:05;;;;;;;12.90;6.65;;;;;;;;;;5053197;28;20067;-63
2023/07/22 06:10:31;;;;;;;16.55;7.25;;;;;;;;;;5055475;28;20032;-63
2023/07/22 06:12:56;;;;;;;16.85;7.70;;;;;;;;;;5052205;28;20021;-63
2023/07/22 06:15:21;;;;;;;17.67;7.45;;;;;;;;;;5051798;28;20110;-63
2023/07/22 06:17:47;;;;;;;14.55;6.80;;;;;;;;;;5052440;28;20025;-63
2023/07/22 06:20:12;;;;;;;16.40;7.13;;;;;;;;;;5059901;28;20044;-63
2023/07/22 06:22:37;;;;;;;17.80;7.63;;;;;;;;;;5052134;28;20393;-63
2023/07/22 06:25:03;;;;;;;15.27;6.88;;;;;;;;;;5052326;28;20028;-63
2023/07/22 06:27:28;;;;;;;15.75;7.20;;;;;;;;;;5048396;28;20060;-64
2023/07/22 06:29:53;;;;;;;15.35;7.32;;;;;;;;;;5050258;28;20082;-63
2023/07/22 06:32:18;;;;;;;15.15;6.93;;;;;;;;;;5049524;28;20091;-62
2023/07/22 06:34:44;;;;;;;15.20;7.05;;;;;;;;;;5049427;28;20063;-63
2023/07/22 06:37:09;;;;;;;16.13;6.95;;;;;;;;;;5050931;28;20068;-62
2023/07/22 06:39:34;;;;;;;14.45;7.00;;;;;;;;;;5040292;28;20022;-63
2023/07/22 06:41:59;;;;;;;15.32;6.60;;;;;;;;;;5031563;28;20021;-62
2023/07/22 06:44:25;;;;;;;13.93;7.00;;;;;;;;;;5050981;28;20021;-63
2023/07/22 06:46:50;;;;;;;12.30;6.40;;;;;;;;;;5054887;28;20068;-63
2023/07/22 06:49:15;;;;;;;13.07;6.65;;;;;;;;;;5050652;28;20041;-62
2023/07/22 06:51:40;;;;;;;15.50;6.72;;;;;;;;;;5058005;28;20033;-63
2023/07/22 06:54:06;;;;;;;13.70;6.57;;;;;;;;;;5049888;28;20056;-63
2023/07/22 06:56:31;;;;;;;12.65;7.03;;;;;;;;;;5051059;28;21502;-62
2023/07/22 06:58:56;;;;;;;12.70;6.68;;;;;;;;;;5040910;28;20037;-63
2023/07/22 07:01:22;;;;;;;12.18;6.78;;;;;;;;;;5036388;28;20036;-62
2023/07/22 07:03:47;;;;;;;14.50;6.55;;;;;;;;;;5053101;28;20163;-61
2023/07/22 07:06:12;;;;;;;13.80;6.35;;;;;;;;;;5053075;28;20100;-61
2023/07/22 07:08:37;;;;;;;12.85;6.22;;;;;;;;;;5052920;28;20052;-62
2023/07/22 07:11:03;;;;;;;12.43;6.10;;;;;;;;;;5052731;28;20112;-62
2023/07/22 07:13:28;;;;;;;13.32;6.60;;;;;;;;;;5052694;28;20040;-63
2023/07/22 07:15:54;;;;;;;13.65;6.50;;;;;;;;;;5035438;28;20060;-62
2023/07/22 07:18:19;;;;;;;13.85;6.88;;;;;;;;;;5036080;28;20017;-63
2023/07/22 07:20:45;;;;;;;12.88;6.50;;;;;;;;;;5052141;28;20025;-63
2023/07/22 07:23:10;;;;;;;12.65;7.00;;;;;;;;;;5052236;28;20029;-63
2023/07/22 07:25:35;;;;;;;15.15;7.55;;;;;;;;;;5055962;28;20561;-63
2023/07/22 07:28:00;;;;;;;12.95;6.97;;;;;;;;;;5072028;28;20033;-63
2023/07/22 07:30:26;;;;;;;15.48;7.50;;;;;;;;;;5073670;28;20040;-63
2023/07/22 07:32:51;;;;;;;15.35;7.13;;;;;;;;;;5071738;28;20036;-64
2023/07/22 07:35:16;;;;;;;14.02;7.22;;;;;;;;;;5071334;28;20021;-63
2023/07/22 07:37:41;;;;;;;15.55;6.95;;;;;;;;;;5071997;28;20033;-63
2023/07/22 07:40:08;;;;;;;16.40;7.50;;;;;;;;;;5070978;28;20035;-64
2023/07/22 07:42:33;;;;;;;19.67;7.15;;;;;;;;;;5071850;28;20108;-63
2023/07/22 07:44:58;;;;;;;14.43;7.18;;;;;;;;;;5073920;28;20056;-64
2023/07/22 07:47:24;;;;;;;16.45;7.07;;;;;;;;;;5075569;28;20029;-63
2023/07/22 07:49:49;;;;;;;17.45;7.75;;;;;;;;;;5075773;28;20522;-63
2023/07/22 07:52:14;;;;;;;15.70;7.65;;;;;;;;;;5075422;28;20514;-63
2023/07/22 07:54:39;;;;;;;16.42;8.20;;;;;;;;;;5074898;28;20431;-63
2023/07/22 07:57:05;;;;;;;13.80;7.50;;;;;;;;;;5074903;28;20060;-63
2023/07/22 07:59:30;;;;;;;15.10;7.28;;;;;;;;;;5075855;28;20021;-63
2023/07/22 08:01:55;;;;;;;16.00;7.85;;;;;;;;;;5074197;28;20086;-63
2023/07/22 08:04:21;;;;;;;17.35;7.95;;;;;;;;;;5073955;28;20362;-63
2023/07/22 08:06:46;;;;;;;15.35;7.53;;;;;;;;;;5075209;28;20032;-63
2023/07/22 08:09:16;;;;;;;15.88;7.80;;;;;;;;;;5075860;28;20249;-63
2023/07/22 08:11:41;;;;;;;13.02;7.15;;;;;;;;;;5058086;28;20028;-62
2023/07/22 08:14:07;;;;;;;15.40;7.13;;;;;;;;;;5075779;28;20392;-62
2023/07/22 08:16:33;;;;;;;14.82;7.20;;;;;;;;;;5075284;28;20139;-62
2023/07/22 08:18:58;;;;;;;14.35;7.18;;;;;;;;;;5075921;28;20092;-63
2023/07/22 08:21:23;;;;;;;14.63;7.18;;;;;;;;;;5073188;28;20012;-62
2023/07/22 08:23:48;;;;;;;13.20;6.70;;;;;;;;;;5078685;28;20027;-63
2023/07/22 08:26:14;;;;;;;12.85;6.88;;;;;;;;;;5094282;28;20083;-63
2023/07/22 08:28:40;;;;;;;12.90;6.40;;;;;;;;;;5073850;28;20024;-62
2023/07/22 08:31:05;;;;;;;13.68;7.15;;;;;;;;;;5074721;28;20389;-62
2023/07/22 08:33:30;;;;;;;15.65;7.10;;;;;;;;;;5073220;28;20035;-62
2023/07/22 08:35:56;;;;;;;15.30;6.95;;;;;;;;;;5066538;28;20028;-63
2023/07/22 08:38:21;;;;;;;14.07;6.82;;;;;;;;;;5071414;28;20027;-62
2023/07/22 08:40:49;;;;;;;11.73;6.43;;;;;;;;;;5075249;28;20036;-63
2023/07/22 08:43:14;;;;;;;15.43;7.45;;;;;;;;;;5072704;28;20021;-63
2023/07/22 08:45:40;;;;;;;16.35;7.40;;;;;;;;;;5087046;28;20043;-63
2023/07/22 08:48:07;;;;;;;13.57;7.50;;;;;;;;;;5083655;28;20036;-62
2023/07/22 08:50:39;;;;;;;14.90;7.07;;;;;;;;;;5073023;28;20025;-63
2023/07/22 08:53:05;;;;;;;17.42;7.63;;;;;;;;;;5072570;28;20036;-63
2023/07/22 08:55:30;;;;;;;16.05;7.90;;;;;;;;;;5073936;28;20521;-63
2023/07/22 08:57:56;;;;;;;15.73;7.32;;;;;;;;;;5072170;28;20158;-63
2023/07/22 09:00:22;;;;;;;13.18;6.53;;;;;;;;;;5073779;28;20017;-63
2023/07/22 09:02:48;;;;;;;13.63;6.15;;;;;;;;;;5074569;28;20040;-63
2023/07/22 09:05:13;;;;;;;13.93;6.65;;;;;;;;;;5075601;28;20043;-62
2023/07/22 09:07:39;;;;;;;11.15;5.78;;;;;;;;;;5075219;28;20020;-62
2023/07/22 09:10:07;;;;;;;14.13;6.60;;;;;;;;;;5074709;28;20058;-63
2023/07/22 09:12:39;;;;;;;11.95;7.10;;;;;;;;;;5074487;28;20013;-63
2023/07/22 09:15:05;;;;;;;11.70;6.00;;;;;;;;;;5072521;28;20016;-62
2023/07/22 09:17:31;;;;;;;12.57;6.50;;;;;;;;;;5059424;28;20479;-63
2023/07/22 09:19:56;;;;;;;12.55;6.25;;;;;;;;;;5073636;28;20069;-63
2023/07/22 09:22:24;;;;;;;12.73;6.50;;;;;;;;;;5073731;28;20016;-63
2023/07/22 09:24:50;;;;;;;12.25;6.47;;;;;;;;;;5073407;28;20067;-62
2023/07/22 09:27:15;;;;;;;13.82;6.60;;;;;;;;;;5073055;28;20049;-62
2023/07/22 09:29:40;;;;;;;13.70;6.82;;;;;;;;;;5061237;28;20027;-62
2023/07/22 09:32:05;;;;;;;12.07;6.20;;;;;;;;;;5072140;28;20021;-62
2023/07/22 09:34:31;;;;;;;14.75;6.82;;;;;;;;;;5058053;28;20104;-63
2023/07/22 09:36:57;;;;;;;13.93;7.15;;;;;;;;;;5059588;28;20380;-63
2023/07/22 09:39:23;;;;;;;13.65;6.85;;;;;;;;;;5073298;28;20082;-63
2023/07/22 09:41:48;;;;;;;13.90;6.22;;;;;;;;;;5073929;28;20353;-63
2023/07/22 09:44:14;;;;;;;13.48;6.20;;;;;;;;;;5066997;28;20026;-62
2023/07/22 09:46:39;;;;;;;10.55;5.90;;;;;;;;;;5056337;28;20082;-62
2023/07/22 09:49:05;;;;;;;11.68;6.55;;;;;;;;;;5065984;28;20075;-61
2023/07/22 09:51:37;;;;;;;13.18;6.70;;;;;;;;;;5052983;28;20017;-62
2023/07/22 09:54:03;;;;;;;11.20;6.57;;;;;;;;;;5053703;28;20021;-61
2023/07/22 09:56:29;;;;;;;11.85;6.43;;;;;;;;;;5067784;28;20028;-61
2023/07/22 09:58:55;;;;;;;11.25;6.32;;;;;;;;;;5067112;28;20716;-60
2023/07/22 10:01:22;;;;;;;9.95;5.13;;;;;;;;;;5066985;28;20454;-61
2023/07/22 10:03:50;;;;;;;7.78;4.50;;;;;;;;;;5059187;28;20017;-61
2023/07/22 10:06:16;;;;;;;10.10;5.40;;;;;;;;;;5046185;28;20103;-62
2023/07/22 10:08:43;;;;;;;10.40;5.28;;;;;;;;;;5065096;28;20117;-61
2023/07/22 10:11:09;;;;;;;10.75;5.45;;;;;;;;;;5053451;28;20490;-61
2023/07/22 10:13:34;;;;;;;8.50;4.63;;;;;;;;;;5067902;28;20029;-63
2023/07/22 10:16:00;;;;;;;10.98;5.40;;;;;;;;;;5052513;28;20025;-62
2023/07/22 10:18:25;;;;;;;9.45;5.47;;;;;;;;;;5053242;28;20021;-62
2023/07/22 10:20:51;;;;;;;9.90;5.60;;;;;;;;;;5051360;28;20017;-62
2023/07/22 10:23:17;;;;;;;8.45;4.68;;;;;;;;;;5053470;28;20025;-63
2023/07/22 10:25:43;;;;;;;6.93;3.70;;;;;;;;;;5052323;28;20160;-63
2023/07/22 10:28:09;;;;;;;6.05;3.28;;;;;;;;;;5050524;28;20096;-62
2023/07/22 10:30:34;;;;;;;8.18;4.10;;;;;;;;;;5058196;28;20024;-62
2023/07/22 10:33:00;;;;;;;8.40;4.25;;;;;;;;;;5053843;28;20484;-63
2023/07/22 10:35:31;;;;;;;8.32;4.20;;;;;;;;;;5057435;28;20500;-62
2023/07/22 10:38:06;;;;;;;7.88;4.00;;;;;;;;;;5053655;28;20021;-62
2023/07/22 10:40:31;;;;;;;6.40;3.70;;;;;;;;;;5055142;28;20121;-63
2023/07/22 10:42:57;;;;;;;8.07;4.35;;;;;;;;;;5052499;28;20056;-62
2023/07/22 10:45:27;;;;;;;6.68;3.70;;;;;;;;;;5052427;28;20408;-63
2023/07/22 10:48:04;;;;;;;7.82;4.03;;;;;;;;;;5053991;28;20033;-62
2023/07/22 10:50:40;;;;;;;9.98;4.25;;;;;;;;;;5052498;28;20020;-63
2023/07/22 10:53:06;;;;;;;8.35;4.00;;;;;;;;;;5052533;28;20037;-63
2023/07/22 10:55:31;;;;;;;10.15;4.90;;;;;;;;;;5054568;28;20472;-63
2023/07/22 10:58:02;;;;;;;9.85;4.88;;;;;;;;;;5056080;28;20070;-63
2023/07/22 11:00:31;;;;;;;10.02;4.78;;;;;;;;;;5049593;28;20037;-63
2023/07/22 11:03:09;;;;;;;8.85;5.07;;;;;;;;;;5051099;28;20056;-63
2023/07/22 11:05:51;;;;;;;8.43;4.72;;;;;;;;;;5051037;28;20029;-63
2023/07/22 11:08:16;;;;;;;9.27;5.28;;;;;;;;;;5051430;28;20021;-63
2023/07/22 11:10:56;;;;;;;12.63;4.75;;;;;;;;;;5044319;28;20029;-63
2023/07/22 11:13:28;;;;;;;7.82;4.93;;;;;;;;;;5050733;28;20057;-63
2023/07/22 11:15:57;;;;;;;9.20;4.13;;;;;;;;;;5053202;28;20025;-63
2023/07/22 11:18:22;;;;;;;7.85;4.55;;;;;;;;;;5051074;28;20392;-63
2023/07/22 11:20:52;;;;;;;7.50;3.90;;;;;;;;;;5053487;28;20024;-64
2023/07/22 11:23:17;;;;;;;6.72;4.00;;;;;;;;;;5056358;28;20028;-63
2023/07/22 11:25:42;;;;;;;6.78;4.20;;;;;;;;;;5055736;28;20048;-63
2023/07/22 11:28:08;;;;;;;7.93;4.10;;;;;;;;;;5055561;28;20053;-63
2023/07/22 11:30:34;;;;;;;7.80;4.15;;;;;;;;;;5052309;28;20568;-63
2023/07/22 11:32:59;;;;;;;8.02;4.00;;;;;;;;;;5053072;28;20021;-63
2023/07/22 11:35:27;;;;;;;7.70;3.80;;;;;;;;;;5057895;28;20044;-63
2023/07/22 11:38:00;;;;;;;9.65;4.20;;;;;;;;;;5055320;28;20060;-64
2023/07/22 11:40:32;;;;;;;8.45;4.10;;;;;;;;;;5057326;28;20017;-64
2023/07/22 11:42:57;;;;;;;7.90;3.92;;;;;;;;;;5056419;28;20112;-65
2023/07/22 11:45:22;;;;;;;7.63;3.90;;;;;;;;;;5055255;28;20052;-64
2023/07/22 11:47:48;;;;;;;6.35;3.85;;;;;;;;;;5052899;28;20025;-63
2023/07/22 11:50:13;;;;;;;8.00;3.90;;;;;;;;;;5058478;28;20485;-63
2023/07/22 11:52:38;;;;;;;6.95;3.58;;;;;;;;;;5053116;28;20496;-63
2023/07/22 11:55:04;;;;;;;7.95;4.10;;;;;;;;;;5053284;28;20385;-63
2023/07/22 11:57:29;;;;;;;6.68;3.50;;;;;;;;;;5050925;28;20106;-61
2023/07/22 11:59:55;;;;;;;7.88;3.42;;;;;;;;;;5059844;28;20392;-61
2023/07/22 12:02:22;;;;;;;6.18;3.40;;;;;;;;;;5055656;28;20025;-61
2023/07/22 12:04:52;;;;;;;7.05;3.35;;;;;;;;;;5054318;28;20025;-62
2023/07/22 12:07:26;;;;;;;5.57;3.22;;;;;;;;;;5057543;28;20103;-61
2023/07/22 12:09:52;;;;;;;7.97;3.80;;;;;;;;;;5053110;28;20025;-62
2023/07/22 12:12:17;;;;;;;5.45;2.92;;;;;;;;;;5059027;28;20029;-62
2023/07/22 12:14:42;;;;;;;7.50;3.20;;;;;;;;;;5056121;28;20480;-62
2023/07/22 12:17:09;;;;;;;7.45;3.70;;;;;;;;;;5053083;28;20396;-62
2023/07/22 12:19:34;;;;;;;5.85;3.28;;;;;;;;;;5052785;28;20075;-62
2023/07/22 12:21:59;;;;;;;7.90;3.40;;;;;;;;;;5052929;28;20486;-62
2023/07/22 12:24:25;;;;;;;6.68;3.63;;;;;;;;;;5060851;28;20052;-62
2023/07/22 12:26:50;;;;;;;6.93;3.40;;;;;;;;;;5057856;28;20535;-62
2023/07/22 12:29:15;;;;;;;6.82;3.60;;;;;;;;;;5064675;28;20021;-62
2023/07/22 12:31:40;;;;;;;6.97;3.70;;;;;;;;;;5058611;28;20048;-62
2023/07/22 12:34:05;;;;;;;6.82;3.60;;;;;;;;;;5051515;28;20024;-61
2023/07/22 12:36:31;;;;;;;5.93;3.30;;;;;;;;;;5059799;28;20036;-62
2023/07/22 12:38:56;;;;;;;7.25;3.70;;;;;;;;;;5062831;28;20517;-61
2023/07/22 12:41:21;;;;;;;6.75;3.25;;;;;;;;;;5060227;28;20674;-62
2023/07/22 12:43:46;;;;;;;6.95;3.80;;;;;;;;;;5063440;28;21347;-63
2023/07/22 12:46:12;;;;;;;7.82;4.00;;;;;;;;;;5054662;28;20033;-62
2023/07/22 12:48:37;;;;;;;9.10;3.88;;;;;;;;;;5062614;28;20029;-62
2023/07/22 12:51:02;;;;;;;6.70;3.25;;;;;;;;;;5066947;28;20113;-62
2023/07/22 12:53:28;;;;;;;6.68;3.42;;;;;;;;;;5058936;28;20472;-62
2023/07/22 12:55:53;;;;;;;10.65;3.92;;;;;;;;;;5060127;28;20023;-62
2023/07/22 12:58:18;;;;;;;9.18;4.65;;;;;;;;;;5061712;28;20067;-62
2023/07/22 13:00:44;;;;;;;11.18;5.35;;;;;;;;;;5070348;28;20028;-62
2023/07/22 13:03:09;;;;;;;9.15;5.15;;;;;;;;;;5060811;28;20115;-62
2023/07/22 13:05:34;;;;;;;11.55;5.05;;;;;;;;;;5064571;28;20452;-62
2023/07/22 13:08:01;;;;;;;10.88;6.18;;;;;;;;;;5054444;28;20389;-62
2023/07/22 13:10:30;;;;;;;10.77;5.63;;;;;;;;;;5070751;28;20064;-62
2023/07/22 13:12:55;;;;;;;11.48;5.43;;;;;;;;;;5055465;28;20024;-63
2023/07/22 13:15:21;;;;;;;13.27;6.07;;;;;;;;;;5051106;28;20483;-63
2023/07/22 13:17:46;;;;;;;12.05;6.30;;;;;;;;;;5054333;28;20017;-61
2023/07/22 13:20:11;;;;;;;18.65;7.60;;;;;;;;;;5053836;28;20093;-62
2023/07/22 13:22:37;;;;;;;14.50;7.07;;;;;;;;;;5053335;28;20025;-62
2023/07/22 13:25:03;;;;;;;12.45;6.88;;;;;;;;;;5054600;28;20120;-62
2023/07/22 13:27:28;;;;;;;12.48;6.30;;;;;;;;;;5073693;28;20101;-62
2023/07/22 13:29:53;;;;;;;12.20;6.63;;;;;;;;;;5073902;28;20384;-62
2023/07/22 13:32:19;;;;;;;12.15;6.60;;;;;;;;;;5072930;28;20024;-62
2023/07/22 13:34:44;;;;;;;10.85;6.38;;;;;;;;;;5072652;28;20017;-62
2023/07/22 13:37:09;;;;;;;11.35;6.47;;;;;;;;;;5072565;28;20028;-62
2023/07/22 13:39:34;;;;;;;11.68;6.50;;;;;;;;;;5073318;28;20029;-62
2023/07/22 13:41:59;;;;;;;10.95;6.85;;;;;;;;;;5074190;28;20056;-62
2023/07/22 13:44:25;;;;;;;11.18;6.07;;;;;;;;;;5073318;28;20079;-62
2023/07/22 13:46:50;;;;;;;10.07;6.10;;;;;;;;;;5072440;28;20484;-62
2023/07/22 13:49:15;;;;;;;10.57;6.18;;;;;;;;;;5073648;28;20095;-62
2023/07/22 13:51:41;;;;;;;11.00;5.97;;;;;;;;;;5072589;28;20060;-62
2023/07/22 13:54:06;;;;;;;10.40;6.07;;;;;;;;;;5073693;28;20028;-62
2023/07/22 13:56:31;;;;;;;10.07;5.63;;;;;;;;;;5072933;28;20032;-62
2023/07/22 13:58:58;;;;;;;12.98;5.88;;;;;;;;;;5073253;28;20035;-62
2023/07/22 14:01:23;;;;;;;11.05;5.60;;;;;;;;;;5071086;28;20022;-63
2023/07/22 14:03:49;;;;;;;12.32;5.90;;;;;;;;;;5072304;28;20032;-62
2023/07/22 14:06:14;;;;;;;14.55;6.10;;;;;;;;;;5072408;28;20107;-62
2023/07/22 14:08:39;;;;;;;12.00;5.93;;;;;;;;;;5072433;28;20362;-62
2023/07/22 14:11:04;;;;;;;11.88;6.53;;;;;;;;;;5068911;28;20032;-62
2023/07/22 14:13:30;;;;;;;12.20;6.80;;;;;;;;;;5071601;28;20472;-62
2023/07/22 14:15:55;;;;;;;10.85;6.38;;;;;;;;;;5071308;28;20036;-62
2023/07/22 14:18:20;;;;;;;9.88;4.72;;;;;;;;;;5072020;28;20017;-62
2023/07/22 14:20:45;;;;;;;9.75;5.50;;;;;;;;;;5071878;28;20021;-65
2023/07/22 14:23:11;;;;;;;9.43;5.22;;;;;;;;;;5070483;28;20021;-65